Time;durP1;ratioP1;P1;durP2;ratioP2;P2;SDS_P1;SDS_P2;PMS_P1;PMS_P2;Temp;Humidity;BMP_temperature;BMP_pressure;BME280_temperature;BME280_humidity;BME280_pressure;Samples;Min_cycle;Max_cycle;Signal;HPM_P1;HPM_P2
2022/06/08 00:09:34;;;;;;;24.72;20.17;;;;;;;17.57;93.62;98597.19;3865842;89;21289;-85
2022/06/08 00:15:43;;;;;;;24.52;20.10;;;;;;;17.47;93.99;98606.53;3945152;89;21595;-85
2022/06/08 00:21:46;;;;;;;28.90;22.75;;;;;;;17.49;94.07;98602.73;3887869;89;21147;-85
2022/06/08 00:28:02;;;;;;;32.67;25.43;;;;;;;17.44;94.14;98596.32;3896353;89;21240;-85
2022/06/08 00:34:17;;;;;;;27.62;23.12;;;;;;;17.48;94.25;98589.33;3963414;88;21220;-85
2022/06/08 00:40:24;;;;;;;28.12;21.70;;;;;;;17.43;94.62;98589.17;4107546;85;22165;-86
2022/06/08 01:15:32;;;;;;;40.25;27.82;;;;;;;17.45;95.11;98585.41;3933130;89;21059;-84
2022/06/08 01:22:12;;;;;;;36.77;25.70;;;;;;;17.43;95.41;98587.03;3951054;88;21120;-84
2022/06/08 01:42:43;;;;;;;27.48;21.25;;;;;;;17.55;95.64;98566.41;3702350;93;21114;-84
2022/06/08 01:56:22;;;;;;;34.15;24.02;;;;;;;17.53;95.72;98562.50;3756884;93;21172;-85
2022/06/08 02:03:02;;;;;;;29.40;22.00;;;;;;;17.55;95.76;98561.48;3756323;95;21149;-85
2022/06/08 02:22:37;;;;;;;27.13;20.52;;;;;;;17.45;96.31;98550.83;4108274;85;21067;-85
2022/06/08 02:28:58;;;;;;;22.82;20.00;;;;;;;17.42;96.44;98541.98;4116671;85;21107;-85
2022/06/08 02:42:32;;;;;;;26.33;20.92;;;;;;;17.50;96.47;98537.87;4068295;85;21089;-84
2022/06/08 02:48:56;;;;;;;28.47;22.00;;;;;;;17.47;96.51;98524.11;4119275;85;21133;-84
2022/06/08 03:02:44;;;;;;;34.08;23.70;;;;;;;17.30;96.76;98525.28;4100113;85;21981;-85
2022/06/08 03:09:19;;;;;;;32.67;21.93;;;;;;;17.27;97.26;98529.70;4105987;85;21172;-85
2022/06/08 03:15:55;;;;;;;26.10;21.40;;;;;;;17.30;97.46;98523.89;4125169;85;21122;-85
2022/06/08 03:22:23;;;;;;;29.30;21.70;;;;;;;17.35;97.62;98529.70;4114146;85;21046;-85
2022/06/08 03:28:41;;;;;;;25.23;20.20;;;;;;;17.39;97.73;98526.23;4114084;85;21030;-84
2022/06/08 03:34:43;;;;;;;23.07;17.73;;;;;;;17.40;97.80;98527.79;4110337;85;21062;-85
2022/06/08 03:40:58;;;;;;;25.35;19.70;;;;;;;17.45;97.82;98536.99;4104792;85;21071;-85
2022/06/08 03:47:17;;;;;;;21.40;18.12;;;;;;;17.46;97.68;98536.40;4124742;85;21022;-84
2022/06/08 03:53:43;;;;;;;26.68;19.82;;;;;;;17.45;98.02;98543.13;4120245;85;21214;-84
2022/06/08 04:00:06;;;;;;;21.50;17.80;;;;;;;17.49;98.09;98539.09;4108429;85;21040;-85
2022/06/08 04:06:23;;;;;;;22.40;17.20;;;;;;;17.47;98.01;98542.88;4123109;85;21543;-85
2022/06/08 04:12:54;;;;;;;16.25;13.83;;;;;;;17.45;98.18;98546.67;4124845;85;21409;-84
2022/06/08 04:19:26;;;;;;;18.23;13.60;;;;;;;17.53;98.08;98559.73;4108964;85;21113;-85
2022/06/08 04:25:28;;;;;;;19.37;14.75;;;;;;;17.56;97.75;98551.95;4124772;85;21082;-85
2022/06/08 04:31:33;;;;;;;20.88;15.40;;;;;;;17.42;97.15;98541.19;4120120;85;21109;-85
2022/06/08 04:38:27;;;;;;;17.12;14.95;;;;;;;17.28;97.16;98529.07;4110018;85;21073;-85
2022/06/08 04:51:11;;;;;;;20.70;13.75;;;;;;;17.26;97.68;98540.56;4115725;85;21384;-84
2022/06/08 04:57:30;;;;;;;16.90;13.25;;;;;;;17.28;97.28;98547.84;4108846;85;21062;-85
2022/06/08 05:03:34;;;;;;;15.32;12.20;;;;;;;17.26;97.28;98538.42;4110048;85;21609;-85
2022/06/08 05:09:54;;;;;;;19.60;11.65;;;;;;;17.23;97.19;98543.44;4072750;86;21182;-84
2022/06/08 05:15:55;;;;;;;15.25;11.75;;;;;;;17.29;97.37;98547.25;4064661;86;21193;-84
2022/06/08 05:22:30;;;;;;;15.00;11.70;;;;;;;17.29;97.04;98549.39;3949668;88;21102;-84
2022/06/08 05:28:54;;;;;;;16.40;10.90;;;;;;;17.31;97.14;98560.81;3822048;91;21105;-84
2022/06/08 05:35:08;;;;;;;17.82;12.85;;;;;;;17.37;97.26;98554.17;3852444;91;21147;-85
2022/06/08 05:41:10;;;;;;;14.05;11.43;;;;;;;17.44;96.99;98549.28;3804298;93;21154;-85
2022/06/08 05:47:16;;;;;;;12.30;10.82;;;;;;;17.48;97.39;98545.81;3801737;92;21149;-85
2022/06/08 05:53:45;;;;;;;15.25;10.55;;;;;;;17.54;97.53;98550.25;3844047;90;21229;-84
2022/06/08 05:59:57;;;;;;;13.40;10.15;;;;;;;17.65;97.48;98554.92;4007495;86;21123;-85
2022/06/08 06:06:03;;;;;;;11.25;9.58;;;;;;;17.68;97.22;98560.98;4106775;84;21111;-85
2022/06/08 06:12:06;;;;;;;12.03;10.48;;;;;;;17.73;97.12;98567.38;4113638;85;21102;-85
2022/06/08 06:18:21;;;;;;;12.45;10.10;;;;;;;17.77;96.94;98574.98;3948437;88;21242;-86
2022/06/08 06:24:27;;;;;;;12.82;10.43;;;;;;;17.75;96.88;98582.94;3953388;88;21120;-85
2022/06/08 06:31:10;;;;;;;12.23;10.93;;;;;;;17.67;96.67;98594.78;3950447;88;21165;-86
2022/06/08 06:37:31;;;;;;;12.45;10.20;;;;;;;17.59;96.61;98610.59;3777868;91;21188;-86
2022/06/08 06:43:35;;;;;;;17.35;12.05;;;;;;;17.47;96.70;98609.89;3918061;85;21132;-86
2022/06/08 06:49:47;;;;;;;20.85;14.58;;;;;;;17.37;96.89;98603.98;4090448;85;21125;-87
2022/06/08 06:55:50;;;;;;;23.75;15.55;;;;;;;17.30;97.11;98587.52;4040410;86;21107;-86
2022/06/08 07:01:53;;;;;;;20.43;16.42;;;;;;;17.15;97.17;98575.39;4042188;86;21143;-87
2022/06/08 07:07:56;;;;;;;18.90;14.25;;;;;;;17.01;97.18;98569.38;4078387;85;225037;-86
2022/06/08 07:14:02;;;;;;;19.65;15.05;;;;;;;17.07;97.81;98566.27;4136907;84;21106;-87
2022/06/08 07:20:05;;;;;;;18.62;15.03;;;;;;;17.16;98.05;98558.95;4099018;85;21056;-88
2022/06/08 07:26:08;;;;;;;17.98;14.18;;;;;;;17.23;98.71;98562.80;4113799;84;21481;-87
2022/06/08 07:32:10;;;;;;;17.40;14.80;;;;;;;17.28;98.60;98567.20;4142958;84;21547;-87
2022/06/08 07:38:11;;;;;;;16.55;14.28;;;;;;;17.32;98.76;98563.73;4151224;84;21142;-86
2022/06/08 07:44:14;;;;;;;18.15;14.50;;;;;;;17.38;99.14;98555.13;4139254;84;21088;-85
2022/06/08 07:50:16;;;;;;;26.50;14.65;;;;;;;17.48;98.92;98558.27;4140016;84;21072;-87
2022/06/08 07:57:09;;;;;;;;;;;;;;;;;;;;;
2022/06/08 08:03:20;;;;;;;14.98;12.47;;;;;;;17.52;99.23;98554.04;4037578;84;21594;-87
2022/06/08 08:09:23;;;;;;;18.23;14.03;;;;;;;17.67;99.65;98565.72;4085579;85;21154;-87
2022/06/08 08:15:25;;;;;;;16.80;12.93;;;;;;;17.65;99.12;98579.83;4146087;84;21119;-85
2022/06/08 08:21:37;;;;;;;15.18;12.58;;;;;;;17.67;99.46;98588.46;4131820;84;21039;-86
2022/06/08 08:34:34;;;;;;;20.27;14.63;;;;;;;17.61;99.04;98617.27;3960678;84;21211;-86
2022/06/08 08:40:56;;;;;;;23.52;13.83;;;;;;;17.50;99.37;98650.53;4143361;84;21031;-85
2022/06/08 08:47:18;;;;;;;33.30;14.13;;;;;;;17.47;99.64;98645.27;4107245;84;21114;-86
2022/06/08 08:53:29;;;;;;;15.53;10.75;;;;;;;17.39;100.00;98632.77;4097328;85;21067;-86
2022/06/08 08:59:31;;;;;;;21.77;10.13;;;;;;;17.26;100.00;98638.77;4147526;84;21061;-87
2022/06/08 09:05:33;;;;;;;22.27;9.75;;;;;;;17.21;100.00;98647.59;4150155;84;21147;-86
2022/06/08 09:11:44;;;;;;;22.02;10.15;;;;;;;17.16;100.00;98637.02;4115385;84;21625;-88
2022/06/08 09:17:56;;;;;;;11.12;7.17;;;;;;;17.08;100.00;98623.16;4142729;84;21071;-88
2022/06/08 09:24:38;;;;;;;9.15;6.58;;;;;;;17.04;100.00;98616.31;4142038;84;21013;-87
2022/06/08 09:30:51;;;;;;;6.92;6.10;;;;;;;17.03;100.00;98598.77;4138247;84;21657;-87
2022/06/08 09:37:15;;;;;;;7.28;5.30;;;;;;;17.11;100.00;98608.48;4148749;84;21032;-86
2022/06/08 09:43:55;;;;;;;7.80;5.10;;;;;;;17.28;100.00;98588.55;4142954;84;21038;-88
2022/06/08 09:57:26;;;;;;;3.87;3.47;;;;;;;17.68;100.00;98569.28;4076823;85;21055;-88
2022/06/08 10:04:04;;;;;;;4.05;3.00;;;;;;;17.87;100.00;98557.34;4135160;84;35121;-89
2022/06/08 10:10:40;;;;;;;3.27;2.83;;;;;;;18.16;100.00;98554.02;4087595;85;21114;-88
2022/06/08 10:16:52;;;;;;;3.10;2.50;;;;;;;18.39;100.00;98559.34;4087701;85;21116;-88
2022/06/08 10:22:59;;;;;;;5.42;3.15;;;;;;;18.50;100.00;98550.14;4030210;87;21183;-87
2022/06/08 10:29:08;;;;;;;2.52;2.05;;;;;;;18.56;100.00;98542.24;4000868;87;21086;-88
2022/06/08 10:35:24;;;;;;;5.20;2.60;;;;;;;18.55;100.00;98540.70;4000460;87;21490;-88
2022/06/08 10:48:13;;;;;;;2.45;1.67;;;;;;;18.60;100.00;98533.20;4084214;86;21078;-86
2022/06/08 10:54:57;;;;;;;2.20;1.55;;;;;;;18.65;100.00;98523.59;4025676;86;21015;-87
2022/06/08 11:01:07;;;;;;;2.40;1.70;;;;;;;18.60;99.58;98518.59;4072872;86;21028;-86
2022/06/08 11:07:17;;;;;;;2.60;1.50;;;;;;;18.59;99.52;98515.63;4068358;86;21087;-86
2022/06/08 11:13:32;;;;;;;1.80;1.65;;;;;;;18.63;99.59;98519.09;4055890;86;21177;-86
2022/06/08 11:20:10;;;;;;;2.65;1.62;;;;;;;18.73;99.70;98515.22;4090879;85;21046;-85
2022/06/08 11:26:26;;;;;;;3.12;1.77;;;;;;;18.78;99.20;98515.30;4104183;85;21529;-86
2022/06/08 11:32:54;;;;;;;5.08;1.98;;;;;;;18.79;99.09;98514.08;4086147;85;21051;-85
2022/06/08 11:39:10;;;;;;;2.72;1.92;;;;;;;18.83;99.00;98515.53;3901395;90;21119;-85
2022/06/08 11:45:28;;;;;;;2.62;2.20;;;;;;;18.81;98.54;98497.78;3901879;86;21170;-86
2022/06/08 11:52:10;;;;;;;2.52;2.22;;;;;;;18.76;98.85;98508.03;4078892;85;21030;-85
2022/06/08 11:58:30;;;;;;;5.05;2.90;;;;;;;18.67;98.97;98516.38;4083735;85;21424;-85
2022/06/08 12:04:33;;;;;;;5.65;4.35;;;;;;;18.63;99.08;98524.03;4065760;85;21981;-86
2022/06/08 12:10:36;;;;;;;7.97;6.28;;;;;;;18.63;99.14;98517.70;4075091;85;21143;-85
2022/06/08 12:17:08;;;;;;;12.03;8.33;;;;;;;18.59;99.10;98512.85;4018403;86;21093;-85
2022/06/08 12:31:09;;;;;;;11.73;8.95;;;;;;;18.60;99.35;98512.41;4076761;86;21039;-85
2022/06/08 12:58:25;;;;;;;13.70;10.03;;;;;;;18.92;100.00;98492.08;4061532;86;21027;-86
2022/06/08 13:11:16;;;;;;;10.25;8.25;;;;;;;19.17;99.62;98483.01;4075779;86;21074;-87
2022/06/08 13:17:42;;;;;;;11.22;9.43;;;;;;;19.32;99.21;98479.37;4081135;86;21029;-86
2022/06/08 13:44:52;;;;;;;12.55;10.68;;;;;;;19.90;98.30;98477.03;4083731;86;21077;-86
2022/06/08 13:51:30;;;;;;;12.20;9.63;;;;;;;19.99;97.97;98449.33;4099118;87;21042;-86
2022/06/08 13:57:52;;;;;;;16.70;13.25;;;;;;;20.04;97.09;98447.37;4098892;87;21046;-86
2022/06/08 14:03:53;;;;;;;16.37;13.48;;;;;;;20.02;96.83;98441.48;4095763;85;21751;-86
2022/06/08 14:16:14;;;;;;;16.77;13.03;;;;;;;19.87;96.17;98441.83;4079980;86;21016;-87
2022/06/08 14:22:21;;;;;;;15.15;13.22;;;;;;;19.85;96.34;98438.11;4093245;85;22426;-86
2022/06/08 14:28:22;;;;;;;16.35;14.10;;;;;;;19.90;95.82;98443.09;4084108;86;21394;-85
2022/06/08 14:34:32;;;;;;;16.85;14.90;;;;;;;20.08;95.47;98430.73;4081027;86;21605;-87
2022/06/08 14:40:37;;;;;;;13.65;12.20;;;;;;;20.23;95.16;98431.64;4073880;85;21066;-87
2022/06/08 14:46:44;;;;;;;14.20;11.25;;;;;;;20.34;94.68;98421.69;4083193;85;21028;-87
2022/06/08 14:52:46;;;;;;;11.63;10.45;;;;;;;20.42;93.62;98406.30;4077647;86;21023;-86
2022/06/08 14:58:49;;;;;;;12.23;10.40;;;;;;;20.52;93.25;98407.10;4074508;86;21040;-88
2022/06/08 15:04:52;;;;;;;10.70;9.65;;;;;;;20.67;92.53;98406.10;4062906;86;21038;-87
2022/06/08 15:17:24;;;;;;;10.98;9.43;;;;;;;20.81;91.57;98376.38;4097088;85;21038;-87
2022/06/08 15:23:27;;;;;;;11.35;10.03;;;;;;;20.80;90.86;98363.68;4093415;85;21050;-87
2022/06/08 15:29:31;;;;;;;12.58;11.33;;;;;;;20.80;90.21;98351.16;4078462;86;21162;-87
2022/06/08 15:35:34;;;;;;;16.27;12.37;;;;;;;20.80;89.96;98357.33;4080246;86;21038;-88
2022/06/08 15:41:35;;;;;;;16.48;14.43;;;;;;;20.74;89.30;98350.82;4090868;85;20994;-86
2022/06/08 15:47:47;;;;;;;15.60;13.93;;;;;;;20.65;88.97;98346.63;4086617;85;21041;-88
2022/06/08 15:54:06;;;;;;;19.02;13.55;;;;;;;20.60;88.38;98334.09;4090389;85;21058;-87
2022/06/08 16:00:13;;;;;;;15.25;11.55;;;;;;;20.50;88.37;98345.64;4081740;85;21078;-86
2022/06/08 16:06:14;;;;;;;12.78;11.40;;;;;;;20.47;88.01;98343.77;4095038;85;21712;-86
2022/06/08 16:12:16;;;;;;;15.13;11.85;;;;;;;20.37;87.86;98340.17;4081475;86;21059;-86
2022/06/08 16:18:17;;;;;;;11.38;10.23;;;;;;;20.36;87.78;98342.77;4081668;86;21074;-86
2022/06/08 16:24:18;;;;;;;10.68;9.63;;;;;;;20.32;87.59;98349.09;4031438;87;21079;-86
2022/06/08 16:30:26;;;;;;;13.85;12.35;;;;;;;20.27;87.56;98348.89;4093460;85;21034;-87
2022/06/08 16:36:27;;;;;;;13.40;11.15;;;;;;;20.26;87.49;98356.48;4087621;85;21788;-85
2022/06/08 16:42:28;;;;;;;10.90;9.25;;;;;;;20.17;87.48;98356.43;4093145;85;21651;-86
2022/06/08 16:48:33;;;;;;;10.10;8.48;;;;;;;20.10;87.59;98358.04;4083953;85;21562;-87
2022/06/08 16:54:33;;;;;;;11.65;8.60;;;;;;;20.04;87.64;98352.30;3972056;85;10000336;-87
2022/06/08 17:00:35;;;;;;;11.45;7.70;;;;;;;19.95;87.61;98340.35;4083613;85;21409;-86
2022/06/08 17:06:36;;;;;;;11.63;8.35;;;;;;;19.89;87.72;98342.14;4083457;85;21516;-86
2022/06/08 17:12:38;;;;;;;15.43;8.50;;;;;;;19.84;87.73;98341.35;4082529;85;21080;-85
2022/06/08 17:18:40;;;;;;;12.88;8.88;;;;;;;19.77;87.68;98361.03;4072199;86;20979;-87
2022/06/08 17:24:41;;;;;;;11.80;6.72;;;;;;;19.69;88.02;98369.45;4023475;86;21066;-87
2022/06/08 17:30:43;;;;;;;10.65;7.25;;;;;;;19.66;88.14;98366.19;4085543;86;21051;-86
2022/06/08 17:36:44;;;;;;;11.78;8.93;;;;;;;19.64;88.17;98375.57;4082687;85;21028;-86
2022/06/08 17:42:47;;;;;;;12.53;8.23;;;;;;;19.60;88.27;98386.83;4008944;87;21960;-87
2022/06/08 17:48:49;;;;;;;9.90;8.55;;;;;;;19.54;88.54;98388.62;4072563;86;22021;-86
2022/06/08 17:54:50;;;;;;;11.10;9.75;;;;;;;19.48;88.44;98427.86;4077575;86;21161;-86
2022/06/08 18:00:51;;;;;;;10.20;9.10;;;;;;;19.47;88.45;98427.71;4077306;85;21090;-86
2022/06/08 18:06:54;;;;;;;13.13;9.73;;;;;;;19.46;88.52;98440.65;4078869;85;22130;-86
2022/06/08 18:12:55;;;;;;;14.83;10.20;;;;;;;19.43;88.88;98442.94;4069862;85;21632;-86
2022/06/08 18:18:57;;;;;;;16.87;12.75;;;;;;;19.40;88.93;98442.44;4097479;85;21098;-87
2022/06/08 18:24:59;;;;;;;20.02;12.82;;;;;;;19.24;89.10;98405.86;4080134;85;22094;-86
2022/06/08 18:31:00;;;;;;;14.07;11.83;;;;;;;19.16;89.67;98396.22;4080916;85;21027;-87
2022/06/08 18:37:03;;;;;;;14.00;10.95;;;;;;;19.14;89.65;98382.63;4072845;85;21050;-86
2022/06/08 18:43:12;;;;;;;13.55;10.58;;;;;;;19.04;90.17;98384.53;4078904;85;22044;-85
2022/06/08 18:49:17;;;;;;;13.25;10.13;;;;;;;19.02;90.51;98366.77;4083913;85;21059;-85
2022/06/08 18:55:24;;;;;;;10.70;8.75;;;;;;;18.94;90.81;98359.89;4067102;85;21078;-85
2022/06/08 19:01:29;;;;;;;9.97;8.93;;;;;;;18.86;91.17;98343.31;4073624;85;21117;-86
2022/06/08 19:07:31;;;;;;;12.47;9.50;;;;;;;18.79;91.51;98340.78;4074452;86;21784;-86
2022/06/08 19:13:32;;;;;;;10.38;8.73;;;;;;;18.73;91.68;98325.93;4076363;86;21028;-86
2022/06/08 19:25:55;;;;;;;9.28;7.35;;;;;;;18.45;93.15;98355.30;4063028;86;21104;-86
2022/06/08 19:31:57;;;;;;;12.05;8.80;;;;;;;18.34;93.44;98361.13;4057867;86;21098;-86
2022/06/08 19:37:58;;;;;;;11.10;9.10;;;;;;;18.28;94.00;98344.89;4073681;85;21066;-86
2022/06/08 19:44:00;;;;;;;15.10;9.53;;;;;;;18.32;94.31;98360.03;4078326;85;21113;-88
2022/06/08 19:50:01;;;;;;;14.55;10.03;;;;;;;18.24;94.76;98377.48;4076084;85;20999;-88
2022/06/08 19:56:07;;;;;;;14.00;10.70;;;;;;;18.19;95.19;98387.71;4082344;85;20983;-87
2022/06/08 20:02:10;;;;;;;15.50;12.35;;;;;;;18.14;95.54;98397.16;4049569;85;21078;-87
2022/06/08 20:08:13;;;;;;;15.48;12.70;;;;;;;18.03;95.76;98386.98;4044392;87;21909;-87
2022/06/08 20:14:15;;;;;;;16.10;12.40;;;;;;;17.90;96.35;98371.72;4079881;85;21541;-86
2022/06/08 20:20:17;;;;;;;15.88;12.37;;;;;;;17.85;96.99;98379.20;4082497;85;21559;-86
2022/06/08 20:26:18;;;;;;;16.12;12.53;;;;;;;17.85;97.40;98368.13;4083229;85;21075;-86
2022/06/08 20:32:20;;;;;;;22.37;15.93;;;;;;;17.88;97.58;98365.86;4085189;85;21035;-87
2022/06/08 20:38:21;;;;;;;20.80;15.88;;;;;;;17.79;97.40;98369.09;4080867;85;21026;-86
2022/06/08 20:44:24;;;;;;;20.32;14.90;;;;;;;17.71;97.96;98357.41;4083133;85;21153;-86
2022/06/08 20:50:28;;;;;;;24.67;15.95;;;;;;;17.68;98.58;98373.52;4082417;85;21126;-86
2022/06/08 20:56:30;;;;;;;17.23;14.43;;;;;;;17.62;98.63;98368.34;4080653;85;20986;-87
2022/06/08 21:02:32;;;;;;;20.92;16.50;;;;;;;17.59;99.46;98358.15;4084245;85;20984;-86
2022/06/08 21:08:34;;;;;;;20.25;16.05;;;;;;;17.62;99.52;98360.67;4080178;85;21039;-86
2022/06/08 21:14:35;;;;;;;18.35;14.87;;;;;;;17.58;99.79;98353.84;4074111;86;22052;-87
2022/06/08 21:20:37;;;;;;;17.50;15.15;;;;;;;17.51;99.92;98341.56;4075128;86;21039;-87
2022/06/08 21:26:39;;;;;;;21.70;16.95;;;;;;;17.49;100.00;98339.86;4062335;86;21041;-86
2022/06/08 21:32:40;;;;;;;19.07;13.85;;;;;;;17.43;100.00;98349.09;4075537;86;22103;-86
2022/06/08 21:38:43;;;;;;;21.75;14.00;;;;;;;17.40;100.00;98359.02;4053085;86;21040;-86
2022/06/08 21:44:44;;;;;;;16.52;12.95;;;;;;;17.42;100.00;98372.41;4067649;86;22270;-86
2022/06/08 21:50:47;;;;;;;19.77;15.13;;;;;;;17.43;100.00;98376.13;4063471;86;21093;-86
2022/06/08 21:56:49;;;;;;;22.00;14.95;;;;;;;17.33;100.00;98379.18;4061694;86;21073;-87
2022/06/08 22:02:52;;;;;;;21.97;16.95;;;;;;;17.35;100.00;98378.15;4082803;84;21629;-87
2022/06/08 22:08:55;;;;;;;22.48;17.05;;;;;;;17.43;100.00;98369.22;4027227;87;21082;-87
2022/06/08 22:14:56;;;;;;;23.57;18.17;;;;;;;17.46;100.00;98365.61;4085468;85;21101;-87
2022/06/08 22:21:02;;;;;;;21.10;16.97;;;;;;;17.41;100.00;98375.02;4080565;85;21749;-86
2022/06/08 22:27:05;;;;;;;31.33;22.30;;;;;;;17.44;100.00;98361.70;4081625;85;21145;-86
2022/06/08 22:33:16;;;;;;;26.82;20.60;;;;;;;17.49;100.00;98354.29;4077899;85;21101;-87
2022/06/08 22:46:23;;;;;;;26.27;19.95;;;;;;;17.48;100.00;98339.67;4084308;86;21957;-86
2022/06/08 22:52:24;;;;;;;30.15;21.80;;;;;;;17.46;100.00;98334.41;4077111;86;21119;-86
2022/06/08 22:58:26;;;;;;;30.55;20.82;;;;;;;17.44;100.00;98319.63;4094215;85;21015;-86
2022/06/08 23:04:27;;;;;;;27.77;22.25;;;;;;;17.43;100.00;98319.41;4091445;85;21906;-86
2022/06/08 23:10:29;;;;;;;25.35;20.60;;;;;;;17.39;100.00;98315.98;4093847;85;21026;-86
2022/06/08 23:22:52;;;;;;;26.30;20.12;;;;;;;17.27;100.00;98318.09;4023812;87;21032;-87
2022/06/08 23:28:54;;;;;;;29.80;21.97;;;;;;;17.29;100.00;98314.88;4082671;86;21519;-86
2022/06/08 23:34:55;;;;;;;28.67;21.20;;;;;;;17.28;100.00;98312.72;4058925;86;21031;-87
2022/06/08 23:40:56;;;;;;;25.27;18.48;;;;;;;17.30;100.00;98299.83;4075777;86;21076;-86
2022/06/08 23:46:58;;;;;;;28.98;18.27;;;;;;;17.32;100.00;98296.78;4074197;86;21149;-86
2022/06/08 23:52:59;;;;;;;27.87;19.32;;;;;;;17.38;100.00;98296.45;4084624;86;21147;-86
2022/06/08 23:59:01;;;;;;;26.68;20.82;;;;;;;17.39;100.00;98293.05;4082367;86;21151;-86
